New Orleans, Louisiana
Traffic Map
Current Weather Conditions
New Orleans, Louisiana
Clear
Clear
55°
Feels Like: 55°
Wind Chill: 55° Ceiling: Unl
Heat Index: 55° Visibility: 10mi
Dew Point: 43° Wind: 7mph
Humidity: 63% Direction: 340° (NNW)
Pressure: 30.33in Gusts: 0mph
Raw Report DataKVSH 270935Z AUTO 34006KT 10SM CLR 13/06 A3033 RMK AO1
Traffic Incident Summary
Active as of:
Severity:
Category:
InformationThere was an issue retrieving the traffic information for this location. Please try a different location or try again shortly.
Advertisements
Track Severe Weather on mobile